Time;durP1;ratioP1;P1;durP2;ratioP2;P2;SDS_P1;SDS_P2;PMS_P1;PMS_P2;Temp;Humidity;BMP_temperature;BMP_pressure;BME280_temperature;BME280_humidity;BME280_pressure;Samples;Min_cycle;Max_cycle;Signal;HPM_P1;HPM_P2
2023/01/30 00:00:04;;;;;;;26.80;17.00;;;;;;;-128.00;-1.00;-1.00;105060;1263;1005259;-78
2023/01/30 00:02:31;;;;;;;24.20;15.50;;;;;;;-128.00;-1.00;-1.00;105045;1263;1004718;-79
2023/01/30 00:04:58;;;;;;;25.90;15.90;;;;;;;-128.00;-1.00;-1.00;105098;1263;1004085;-77
2023/01/30 00:07:24;;;;;;;24.90;16.50;;;;;;;-128.00;-1.00;-1.00;105044;1262;1004378;-79
2023/01/30 00:09:51;;;;;;;28.90;17.40;;;;;;;-128.00;-1.00;-1.00;105049;1263;1003424;-78
2023/01/30 00:12:18;;;;;;;23.40;15.90;;;;;;;-128.00;-1.00;-1.00;105058;1263;1004081;-79
2023/01/30 00:14:44;;;;;;;21.80;14.00;;;;;;;-128.00;-1.00;-1.00;104277;1263;1006097;-79
2023/01/30 00:17:11;;;;;;;20.00;15.10;;;;;;;-128.00;-1.00;-1.00;105058;1263;1003819;-79
2023/01/30 00:19:38;;;;;;;25.10;15.50;;;;;;;-128.00;-1.00;-1.00;105015;1263;1004416;-78
2023/01/30 00:22:04;;;;;;;26.50;15.90;;;;;;;-128.00;-1.00;-1.00;104945;1263;1005996;-78
2023/01/30 00:24:31;;;;;;;23.30;16.30;;;;;;;-128.00;-1.00;-1.00;105053;1263;1004027;-78
2023/01/30 00:26:58;;;;;;;23.30;15.70;;;;;;;-128.00;-1.00;-1.00;104855;1263;1003974;-78
2023/01/30 00:29:24;;;;;;;24.10;15.30;;;;;;;-128.00;-1.00;-1.00;105042;1263;1004473;-78
2023/01/30 00:31:51;;;;;;;21.60;14.50;;;;;;;-128.00;-1.00;-1.00;104813;1263;1005157;-77
2023/01/30 00:34:17;;;;;;;26.30;16.60;;;;;;;-128.00;-1.00;-1.00;105044;1262;1004266;-78
2023/01/30 00:36:44;;;;;;;26.50;17.20;;;;;;;-128.00;-1.00;-1.00;105058;1263;1003964;-78
2023/01/30 00:39:11;;;;;;;28.40;17.60;;;;;;;-128.00;-1.00;-1.00;105080;1263;1004870;-78
2023/01/30 00:47:07;;;;;;;23.80;15.30;;;;;;;-128.00;-1.00;-1.00;105050;1263;1047041;-78
2023/01/30 00:49:36;;;;;;;23.50;15.60;;;;;;;-128.00;-1.00;-1.00;105071;1263;1003919;-78
2023/01/30 00:52:03;;;;;;;25.00;15.50;;;;;;;-128.00;-1.00;-1.00;104857;1263;1004136;-79
2023/01/30 00:54:30;;;;;;;23.90;16.60;;;;;;;-128.00;-1.00;-1.00;105071;1262;1003863;-78
2023/01/30 00:56:57;;;;;;;22.50;14.90;;;;;;;-128.00;-1.00;-1.00;105023;1263;1004652;-77
2023/01/30 00:59:26;;;;;;;25.90;16.50;;;;;;;-128.00;-1.00;-1.00;105030;1262;1004292;-78
2023/01/30 01:01:53;;;;;;;26.10;16.50;;;;;;;-128.00;-1.00;-1.00;105053;1262;1048490;-79
2023/01/30 01:04:20;;;;;;;22.10;15.60;;;;;;;-128.00;-1.00;-1.00;105078;1262;1004678;-79
2023/01/30 01:06:46;;;;;;;23.40;15.60;;;;;;;-128.00;-1.00;-1.00;104904;1263;1003988;-78
2023/01/30 01:09:13;;;;;;;24.00;16.20;;;;;;;-128.00;-1.00;-1.00;104260;1264;1003734;-78
2023/01/30 01:11:40;;;;;;;22.90;16.10;;;;;;;-128.00;-1.00;-1.00;105056;1263;1005007;-78
2023/01/30 01:14:06;;;;;;;27.00;16.10;;;;;;;-128.00;-1.00;-1.00;104732;1263;1003798;-78
2023/01/30 01:16:34;;;;;;;26.60;17.30;;;;;;;-128.00;-1.00;-1.00;105043;1263;1003983;-77
2023/01/30 01:19:02;;;;;;;23.40;15.40;;;;;;;-128.00;-1.00;-1.00;105065;1263;1004433;-78
2023/01/30 01:21:29;;;;;;;25.80;16.00;;;;;;;-128.00;-1.00;-1.00;105040;1263;1004408;-78
2023/01/30 01:23:58;;;;;;;27.20;18.50;;;;;;;-128.00;-1.00;-1.00;104186;1263;1004636;-78
2023/01/30 01:26:25;;;;;;;27.60;16.40;;;;;;;-128.00;-1.00;-1.00;105045;1263;1047160;-78
2023/01/30 01:28:58;;;;;;;23.90;15.00;;;;;;;-128.00;-1.00;-1.00;104291;1262;1004190;-77
2023/01/30 01:31:25;;;;;;;25.40;15.70;;;;;;;-128.00;-1.00;-1.00;104299;1263;1055576;-77
2023/01/30 01:33:52;;;;;;;23.10;15.80;;;;;;;-128.00;-1.00;-1.00;105023;1263;1004031;-77
2023/01/30 01:36:19;;;;;;;27.90;16.60;;;;;;;-128.00;-1.00;-1.00;105073;1263;1004191;-78
2023/01/30 01:38:46;;;;;;;25.30;15.70;;;;;;;-128.00;-1.00;-1.00;105077;1263;1004182;-79
2023/01/30 01:41:14;;;;;;;24.20;15.20;;;;;;;-128.00;-1.00;-1.00;105051;1263;1003407;-78
2023/01/30 01:44:02;;;;;;;27.50;17.20;;;;;;;-128.00;-1.00;-1.00;105079;1263;1055099;-79
2023/01/30 01:46:35;;;;;;;24.70;15.40;;;;;;;-128.00;-1.00;-1.00;105060;1263;1060128;-78
2023/01/30 01:49:10;;;;;;;20.60;14.20;;;;;;;-128.00;-1.00;-1.00;104806;1263;1046099;-78
2023/01/30 01:51:48;;;;;;;24.20;15.80;;;;;;;-128.00;-1.00;-1.00;104949;1264;1046670;-77
2023/01/30 01:54:27;;;;;;;22.20;14.90;;;;;;;-128.00;-1.00;-1.00;104833;1263;1061425;-78
2023/01/30 01:56:53;;;;;;;20.00;13.70;;;;;;;-128.00;-1.00;-1.00;105136;1263;1055078;-78
2023/01/30 01:59:31;;;;;;;20.50;14.40;;;;;;;-128.00;-1.00;-1.00;105079;1263;1003804;-78
2023/01/30 02:02:02;;;;;;;19.10;12.80;;;;;;;-128.00;-1.00;-1.00;105069;1263;1046333;-78
2023/01/30 02:07:20;;;;;;;18.80;13.50;;;;;;;-128.00;-1.00;-1.00;105092;1263;1061998;-79
2023/01/30 02:09:49;;;;;;;24.20;14.40;;;;;;;-128.00;-1.00;-1.00;104096;1263;1055514;-79
2023/01/30 02:12:16;;;;;;;23.20;15.70;;;;;;;-128.00;-1.00;-1.00;105038;1262;1058404;-79
2023/01/30 02:14:43;;;;;;;21.70;14.00;;;;;;;-128.00;-1.00;-1.00;105032;1262;1003680;-79
2023/01/30 02:17:10;;;;;;;18.50;11.80;;;;;;;-128.00;-1.00;-1.00;104940;1265;1004011;-79
2023/01/30 02:19:43;;;;;;;18.90;13.60;;;;;;;-128.00;-1.00;-1.00;104870;1263;1004533;-79
2023/01/30 02:22:47;;;;;;;20.00;12.80;;;;;;;-128.00;-1.00;-1.00;105085;1263;1055271;-79
2023/01/30 02:25:41;;;;;;;19.10;13.20;;;;;;;-128.00;-1.00;-1.00;105082;1263;1059496;-78
2023/01/30 02:28:26;;;;;;;17.30;11.00;;;;;;;-128.00;-1.00;-1.00;104989;1264;1047010;-79
2023/01/30 02:31:34;;;;;;;12.40;8.70;;;;;;;-128.00;-1.00;-1.00;105072;1264;1046663;-78
2023/01/30 02:34:21;;;;;;;18.40;12.50;;;;;;;-128.00;-1.00;-1.00;104529;1270;1062402;-78
2023/01/30 02:37:15;;;;;;;16.90;11.60;;;;;;;-128.00;-1.00;-1.00;104584;1270;1056236;-78
2023/01/30 02:40:12;;;;;;;19.70;11.40;;;;;;;-128.00;-1.00;-1.00;104543;1275;1057989;-78
2023/01/30 02:43:00;;;;;;;14.00;10.40;;;;;;;-128.00;-1.00;-1.00;104534;1269;1046782;-78
2023/01/30 02:45:42;;;;;;;20.00;11.80;;;;;;;-128.00;-1.00;-1.00;104587;1270;1046946;-79
2023/01/30 02:48:13;;;;;;;17.40;11.70;;;;;;;-128.00;-1.00;-1.00;104601;1270;1062101;-78
2023/01/30 02:50:48;;;;;;;16.50;10.30;;;;;;;-128.00;-1.00;-1.00;104548;1271;1055745;-78
2023/01/30 02:53:16;;;;;;;17.60;12.50;;;;;;;-128.00;-1.00;-1.00;104583;1270;1060007;-78
2023/01/30 02:55:42;;;;;;;16.30;12.20;;;;;;;-128.00;-1.00;-1.00;104516;1270;1004388;-78
2023/01/30 02:58:12;;;;;;;18.80;12.10;;;;;;;-128.00;-1.00;-1.00;103876;1270;1004840;-78
2023/01/30 03:01:12;;;;;;;14.40;10.80;;;;;;;-128.00;-1.00;-1.00;104589;1270;1061932;-78
2023/01/30 03:03:39;;;;;;;17.60;11.00;;;;;;;-128.00;-1.00;-1.00;103827;1270;1056805;-79
2023/01/30 03:06:12;;;;;;;15.10;9.70;;;;;;;-128.00;-1.00;-1.00;104569;1270;1005294;-77
2023/01/30 03:08:49;;;;;;;14.20;9.80;;;;;;;-128.00;-1.00;-1.00;104595;1270;1046103;-78
2023/01/30 03:11:16;;;;;;;12.00;9.60;;;;;;;-128.00;-1.00;-1.00;104768;1263;1046715;-79
2023/01/30 03:13:49;;;;;;;14.20;9.50;;;;;;;-128.00;-1.00;-1.00;104927;1264;1004310;-78
2023/01/30 03:16:30;;;;;;;14.40;10.20;;;;;;;-128.00;-1.00;-1.00;104971;1263;1055229;-77
2023/01/30 03:19:02;;;;;;;13.20;8.20;;;;;;;-128.00;-1.00;-1.00;104952;1263;1059480;-77
2023/01/30 03:21:29;;;;;;;15.30;10.50;;;;;;;-128.00;-1.00;-1.00;104899;1264;1045270;-78
2023/01/30 03:23:56;;;;;;;13.40;9.80;;;;;;;-128.00;-1.00;-1.00;105000;1263;1003311;-77
2023/01/30 03:26:29;;;;;;;13.20;8.90;;;;;;;-128.00;-1.00;-1.00;104969;1263;1003990;-78
2023/01/30 03:28:56;;;;;;;13.70;9.60;;;;;;;-128.00;-1.00;-1.00;104771;1264;1055971;-78
2023/01/30 03:31:22;;;;;;;11.10;8.70;;;;;;;-128.00;-1.00;-1.00;104909;1264;1004878;-78
2023/01/30 03:33:49;;;;;;;13.20;10.00;;;;;;;-128.00;-1.00;-1.00;104887;1264;1004910;-78
2023/01/30 03:36:16;;;;;;;14.30;9.70;;;;;;;-128.00;-1.00;-1.00;104942;1264;1004106;-78
2023/01/30 03:38:42;;;;;;;13.40;9.80;;;;;;;-128.00;-1.00;-1.00;104916;1263;1004033;-78
2023/01/30 03:41:09;;;;;;;14.30;10.10;;;;;;;-128.00;-1.00;-1.00;104903;1264;1004102;-78
2023/01/30 03:43:36;;;;;;;13.60;9.60;;;;;;;-128.00;-1.00;-1.00;104912;1264;1003859;-78
2023/01/30 03:46:02;;;;;;;12.20;8.40;;;;;;;-128.00;-1.00;-1.00;104915;1264;1004919;-78
2023/01/30 03:48:29;;;;;;;15.40;10.30;;;;;;;-128.00;-1.00;-1.00;104942;1264;1003582;-79
2023/01/30 03:50:56;;;;;;;13.30;10.30;;;;;;;-128.00;-1.00;-1.00;104755;1263;1004385;-78
2023/01/30 03:53:22;;;;;;;14.20;11.00;;;;;;;-128.00;-1.00;-1.00;104935;1264;1003460;-78
2023/01/30 03:55:49;;;;;;;13.40;9.40;;;;;;;-128.00;-1.00;-1.00;104945;1263;1004022;-77
2023/01/30 03:58:17;;;;;;;14.70;9.80;;;;;;;-128.00;-1.00;-1.00;105014;1262;1003750;-78
2023/01/30 04:00:43;;;;;;;10.60;8.10;;;;;;;-128.00;-1.00;-1.00;105055;1263;1004109;-77
2023/01/30 04:03:10;;;;;;;9.60;7.60;;;;;;;-128.00;-1.00;-1.00;105018;1263;1004241;-78
2023/01/30 04:05:37;;;;;;;14.00;9.40;;;;;;;-128.00;-1.00;-1.00;104997;1263;1003883;-78
2023/01/30 04:08:03;;;;;;;14.20;9.30;;;;;;;-128.00;-1.00;-1.00;104944;1262;1004815;-77
2023/01/30 04:10:30;;;;;;;14.20;9.00;;;;;;;-128.00;-1.00;-1.00;104152;1264;1005164;-78
2023/01/30 04:12:57;;;;;;;11.90;9.00;;;;;;;-128.00;-1.00;-1.00;104930;1263;1004653;-78
2023/01/30 04:15:23;;;;;;;11.10;8.00;;;;;;;-128.00;-1.00;-1.00;105009;1263;1004276;-78
2023/01/30 04:17:50;;;;;;;11.50;9.10;;;;;;;-128.00;-1.00;-1.00;105022;1263;1005053;-78
2023/01/30 04:20:17;;;;;;;12.80;9.00;;;;;;;-128.00;-1.00;-1.00;104997;1263;1004628;-78
2023/01/30 04:22:43;;;;;;;12.30;8.50;;;;;;;-128.00;-1.00;-1.00;105022;1263;1003772;-78
2023/01/30 04:25:10;;;;;;;13.80;9.60;;;;;;;-128.00;-1.00;-1.00;105029;1263;1004178;-80
2023/01/30 04:27:37;;;;;;;12.20;9.00;;;;;;;-128.00;-1.00;-1.00;105014;1262;1003997;-77
2023/01/30 04:30:04;;;;;;;12.10;9.00;;;;;;;-128.00;-1.00;-1.00;105018;1262;1004171;-77
2023/01/30 04:32:30;;;;;;;14.30;10.20;;;;;;;-128.00;-1.00;-1.00;105018;1262;1003600;-78
2023/01/30 04:34:57;;;;;;;12.30;8.90;;;;;;;-128.00;-1.00;-1.00;105009;1262;1004295;-78
2023/01/30 04:37:24;;;;;;;14.20;9.80;;;;;;;-128.00;-1.00;-1.00;105030;1262;1004236;-79
2023/01/30 04:39:50;;;;;;;12.30;9.10;;;;;;;-128.00;-1.00;-1.00;104887;1263;1005103;-79
2023/01/30 04:42:17;;;;;;;11.50;8.90;;;;;;;-128.00;-1.00;-1.00;104997;1263;1004033;-80
2023/01/30 04:44:43;;;;;;;13.20;9.50;;;;;;;-128.00;-1.00;-1.00;105016;1263;1003813;-79
2023/01/30 04:47:10;;;;;;;12.00;8.50;;;;;;;-128.00;-1.00;-1.00;104996;1263;1004290;-79
2023/01/30 04:49:37;;;;;;;15.30;10.20;;;;;;;-128.00;-1.00;-1.00;104787;1263;1004504;-79
2023/01/30 04:52:04;;;;;;;14.40;10.00;;;;;;;-128.00;-1.00;-1.00;105057;1262;1004377;-79
2023/01/30 04:54:30;;;;;;;15.20;10.10;;;;;;;-128.00;-1.00;-1.00;104946;1263;1004058;-79
2023/01/30 04:56:57;;;;;;;11.80;9.30;;;;;;;-128.00;-1.00;-1.00;104991;1263;1004258;-78
2023/01/30 04:59:24;;;;;;;15.30;10.00;;;;;;;-128.00;-1.00;-1.00;105007;1263;1004367;-78
2023/01/30 05:01:51;;;;;;;12.40;8.90;;;;;;;-128.00;-1.00;-1.00;104998;1264;1004333;-78
2023/01/30 05:04:18;;;;;;;15.90;10.20;;;;;;;-128.00;-1.00;-1.00;105027;1263;1004905;-78
2023/01/30 05:06:44;;;;;;;22.30;14.40;;;;;;;-128.00;-1.00;-1.00;105011;1262;1004024;-79
2023/01/30 05:09:11;;;;;;;26.70;16.10;;;;;;;-128.00;-1.00;-1.00;105006;1263;1003856;-77
2023/01/30 05:11:38;;;;;;;16.90;11.80;;;;;;;-128.00;-1.00;-1.00;105025;1263;1004135;-78
2023/01/30 05:14:05;;;;;;;15.20;11.70;;;;;;;-128.00;-1.00;-1.00;104984;1262;1003960;-77
2023/01/30 05:16:31;;;;;;;12.60;9.60;;;;;;;-128.00;-1.00;-1.00;105014;1262;1004345;-78
2023/01/30 05:18:58;;;;;;;14.00;8.50;;;;;;;-128.00;-1.00;-1.00;105026;1262;1003966;-78
2023/01/30 05:21:27;;;;;;;12.80;9.40;;;;;;;-128.00;-1.00;-1.00;104999;1263;1004598;-78
2023/01/30 05:23:55;;;;;;;11.60;9.20;;;;;;;-128.00;-1.00;-1.00;105026;1262;1046823;-77
2023/01/30 05:26:22;;;;;;;13.60;8.70;;;;;;;-128.00;-1.00;-1.00;104778;1266;1004336;-78
2023/01/30 05:28:52;;;;;;;12.30;9.10;;;;;;;-128.00;-1.00;-1.00;104707;1267;1004558;-78
2023/01/30 05:31:19;;;;;;;11.80;9.00;;;;;;;-128.00;-1.00;-1.00;104557;1265;1054723;-78
2023/01/30 05:33:48;;;;;;;12.40;9.80;;;;;;;-128.00;-1.00;-1.00;104815;1266;1004208;-78
2023/01/30 05:36:18;;;;;;;11.60;8.50;;;;;;;-128.00;-1.00;-1.00;104744;1267;1046834;-77
2023/01/30 05:38:45;;;;;;;12.80;8.60;;;;;;;-128.00;-1.00;-1.00;104813;1266;1047827;-78
2023/01/30 05:41:13;;;;;;;13.60;9.90;;;;;;;-128.00;-1.00;-1.00;104815;1266;1003679;-78
2023/01/30 05:43:40;;;;;;;12.20;9.70;;;;;;;-128.00;-1.00;-1.00;104788;1266;1055482;-78
2023/01/30 05:46:10;;;;;;;16.00;10.50;;;;;;;-128.00;-1.00;-1.00;104784;1266;1003922;-78
2023/01/30 05:48:37;;;;;;;10.10;7.70;;;;;;;-128.00;-1.00;-1.00;104778;1265;1046141;-78
2023/01/30 05:51:04;;;;;;;15.40;10.80;;;;;;;-128.00;-1.00;-1.00;104812;1265;1003947;-78
2023/01/30 05:53:33;;;;;;;13.40;10.50;;;;;;;-128.00;-1.00;-1.00;104795;1266;1005030;-77
2023/01/30 05:56:03;;;;;;;15.50;10.90;;;;;;;-128.00;-1.00;-1.00;104801;1266;1056878;-77
2023/01/30 05:58:31;;;;;;;16.10;10.50;;;;;;;-128.00;-1.00;-1.00;104622;1264;1058671;-78
2023/01/30 06:01:02;;;;;;;20.60;13.70;;;;;;;-128.00;-1.00;-1.00;104912;1264;1004699;-78
2023/01/30 06:03:29;;;;;;;13.50;9.50;;;;;;;-128.00;-1.00;-1.00;104921;1263;1046972;-79
2023/01/30 06:05:56;;;;;;;13.10;10.90;;;;;;;-128.00;-1.00;-1.00;104921;1264;1003794;-79
2023/01/30 06:08:23;;;;;;;14.30;10.50;;;;;;;-128.00;-1.00;-1.00;104167;1264;1004523;-79
2023/01/30 06:10:50;;;;;;;15.90;10.50;;;;;;;-128.00;-1.00;-1.00;104914;1264;1004836;-79
2023/01/30 06:13:16;;;;;;;12.20;9.20;;;;;;;-128.00;-1.00;-1.00;104881;1264;1004806;-78
2023/01/30 06:15:43;;;;;;;14.60;11.20;;;;;;;-128.00;-1.00;-1.00;104923;1264;1004223;-78
2023/01/30 06:18:10;;;;;;;12.20;10.00;;;;;;;-128.00;-1.00;-1.00;104719;1267;1004184;-78
2023/01/30 06:20:37;;;;;;;13.40;10.20;;;;;;;-128.00;-1.00;-1.00;104734;1267;1004379;-78
2023/01/30 06:23:03;;;;;;;14.80;10.70;;;;;;;-128.00;-1.00;-1.00;104730;1267;1004047;-78
2023/01/30 06:25:30;;;;;;;13.90;10.40;;;;;;;-128.00;-1.00;-1.00;104712;1267;1004327;-78
2023/01/30 06:27:57;;;;;;;14.70;11.20;;;;;;;-128.00;-1.00;-1.00;104734;1267;1004761;-77
2023/01/30 06:30:23;;;;;;;12.90;10.00;;;;;;;-128.00;-1.00;-1.00;104717;1267;1004866;-78
2023/01/30 06:32:50;;;;;;;14.50;10.60;;;;;;;-128.00;-1.00;-1.00;104699;1267;1003568;-80
2023/01/30 06:35:17;;;;;;;13.90;10.60;;;;;;;-128.00;-1.00;-1.00;104715;1267;1004690;-77
2023/01/30 06:37:44;;;;;;;13.50;10.10;;;;;;;-128.00;-1.00;-1.00;104718;1267;1005190;-78
2023/01/30 06:40:12;;;;;;;13.70;10.20;;;;;;;-128.00;-1.00;-1.00;104709;1267;1004853;-78
2023/01/30 06:42:44;;;;;;;13.50;9.80;;;;;;;-128.00;-1.00;-1.00;104716;1267;1003864;-78
2023/01/30 06:45:12;;;;;;;13.30;10.50;;;;;;;-128.00;-1.00;-1.00;104724;1267;1054631;-78
2023/01/30 06:47:53;;;;;;;15.50;10.90;;;;;;;-128.00;-1.00;-1.00;104741;1267;1060057;-79
2023/01/30 06:50:22;;;;;;;14.30;10.60;;;;;;;-128.00;-1.00;-1.00;104889;1264;1047809;-78
2023/01/30 06:52:50;;;;;;;18.80;11.20;;;;;;;-128.00;-1.00;-1.00;104905;1264;1048406;-79
2023/01/30 06:55:22;;;;;;;18.10;11.40;;;;;;;-128.00;-1.00;-1.00;104903;1262;1004498;-79
2023/01/30 06:58:19;;;;;;;17.30;11.50;;;;;;;-128.00;-1.00;-1.00;104998;1262;1056591;-79
2023/01/30 07:00:46;;;;;;;17.40;12.50;;;;;;;-128.00;-1.00;-1.00;104980;1262;1060096;-78
2023/01/30 07:03:15;;;;;;;15.30;11.40;;;;;;;-128.00;-1.00;-1.00;105012;1262;1004322;-78
2023/01/30 07:05:44;;;;;;;14.30;9.60;;;;;;;-128.00;-1.00;-1.00;104619;1262;1046744;-78
2023/01/30 07:08:12;;;;;;;17.20;10.10;;;;;;;-128.00;-1.00;-1.00;104850;1262;1061611;-78
2023/01/30 07:10:40;;;;;;;13.30;10.20;;;;;;;-128.00;-1.00;-1.00;105020;1262;1005099;-79
2023/01/30 07:13:06;;;;;;;12.70;10.20;;;;;;;-128.00;-1.00;-1.00;104887;1262;1003940;-79
2023/01/30 07:15:33;;;;;;;13.10;9.70;;;;;;;-128.00;-1.00;-1.00;105020;1262;1003778;-79
2023/01/30 07:18:00;;;;;;;14.50;10.30;;;;;;;-128.00;-1.00;-1.00;104932;1262;1003742;-79
2023/01/30 07:20:29;;;;;;;14.00;10.90;;;;;;;-128.00;-1.00;-1.00;105014;1262;1004041;-79
2023/01/30 07:22:56;;;;;;;12.90;10.10;;;;;;;-128.00;-1.00;-1.00;105021;1262;1055596;-79
2023/01/30 07:25:24;;;;;;;14.50;10.90;;;;;;;-128.00;-1.00;-1.00;104916;1262;1005008;-78
2023/01/30 07:27:59;;;;;;;14.80;10.80;;;;;;;-128.00;-1.00;-1.00;104920;1262;1045476;-78
2023/01/30 07:30:29;;;;;;;13.60;10.40;;;;;;;-128.00;-1.00;-1.00;104994;1262;1048242;-79
2023/01/30 07:32:58;;;;;;;13.90;10.30;;;;;;;-128.00;-1.00;-1.00;105045;1262;1061478;-78
2023/01/30 07:35:27;;;;;;;13.40;9.10;;;;;;;-128.00;-1.00;-1.00;104974;1262;1055880;-79
2023/01/30 07:37:54;;;;;;;12.00;9.40;;;;;;;-128.00;-1.00;-1.00;105058;1262;1059629;-78
2023/01/30 07:40:21;;;;;;;11.20;8.50;;;;;;;-128.00;-1.00;-1.00;104997;1262;1004725;-79
2023/01/30 07:43:05;;;;;;;14.70;11.50;;;;;;;-128.00;-1.00;-1.00;104924;1264;1004128;-79
2023/01/30 07:45:42;;;;;;;13.70;10.70;;;;;;;-128.00;-1.00;-1.00;105003;1262;1063313;-78
2023/01/30 07:48:11;;;;;;;14.70;9.80;;;;;;;-128.00;-1.00;-1.00;104991;1262;1055319;-77
2023/01/30 07:50:38;;;;;;;12.60;9.70;;;;;;;-128.00;-1.00;-1.00;104900;1262;1059778;-79
2023/01/30 07:53:07;;;;;;;11.50;8.60;;;;;;;-128.00;-1.00;-1.00;104987;1262;1004873;-78
2023/01/30 07:55:34;;;;;;;12.30;9.40;;;;;;;-128.00;-1.00;-1.00;104971;1262;1046634;-77
2023/01/30 07:58:02;;;;;;;12.00;9.10;;;;;;;-128.00;-1.00;-1.00;104953;1262;1003581;-79
2023/01/30 08:00:29;;;;;;;13.00;9.60;;;;;;;-128.00;-1.00;-1.00;105026;1262;1004856;-79
2023/01/30 08:02:56;;;;;;;12.90;9.60;;;;;;;-128.00;-1.00;-1.00;104870;1262;1003666;-79
2023/01/30 08:05:24;;;;;;;14.60;11.70;;;;;;;-128.00;-1.00;-1.00;105002;1262;1004382;-79
2023/01/30 08:07:51;;;;;;;15.60;10.90;;;;;;;-128.00;-1.00;-1.00;105009;1262;1004370;-79
2023/01/30 08:10:18;;;;;;;13.20;10.20;;;;;;;-128.00;-1.00;-1.00;105004;1262;1004969;-79
2023/01/30 08:12:45;;;;;;;12.30;9.40;;;;;;;-128.00;-1.00;-1.00;104838;1262;1004258;-79
2023/01/30 08:15:11;;;;;;;12.70;9.50;;;;;;;-128.00;-1.00;-1.00;104981;1262;1004542;-79
2023/01/30 08:17:38;;;;;;;15.00;10.70;;;;;;;-128.00;-1.00;-1.00;104968;1263;1004417;-79
2023/01/30 08:20:06;;;;;;;40.30;23.00;;;;;;;-128.00;-1.00;-1.00;105016;1262;1005254;-79
2023/01/30 08:22:32;;;;;;;16.50;12.70;;;;;;;-128.00;-1.00;-1.00;104766;1262;1003330;-79
2023/01/30 08:24:59;;;;;;;17.70;11.80;;;;;;;-128.00;-1.00;-1.00;105017;1262;1004194;-78
2023/01/30 08:27:26;;;;;;;14.20;12.00;;;;;;;-128.00;-1.00;-1.00;104983;1262;1004400;-79
2023/01/30 08:29:52;;;;;;;17.30;11.90;;;;;;;-128.00;-1.00;-1.00;104990;1262;1004440;-78
2023/01/30 08:32:19;;;;;;;16.50;11.90;;;;;;;-128.00;-1.00;-1.00;104969;1262;1004312;-79
2023/01/30 08:34:46;;;;;;;18.00;12.30;;;;;;;-128.00;-1.00;-1.00;105005;1262;1004485;-79
2023/01/30 08:37:12;;;;;;;13.70;10.10;;;;;;;-128.00;-1.00;-1.00;104992;1262;1004802;-79
2023/01/30 08:39:39;;;;;;;14.70;11.50;;;;;;;-128.00;-1.00;-1.00;104219;1262;1003690;-78
2023/01/30 08:42:06;;;;;;;15.30;12.00;;;;;;;-128.00;-1.00;-1.00;104999;1262;1004001;-80
2023/01/30 08:44:32;;;;;;;42.40;23.10;;;;;;;-128.00;-1.00;-1.00;104994;1262;1004529;-78
2023/01/30 08:46:59;;;;;;;18.10;12.60;;;;;;;-128.00;-1.00;-1.00;104980;1262;1003988;-80
2023/01/30 08:49:26;;;;;;;17.00;11.50;;;;;;;-128.00;-1.00;-1.00;105007;1262;1003516;-79
2023/01/30 08:51:52;;;;;;;15.00;10.70;;;;;;;-128.00;-1.00;-1.00;105004;1262;1005059;-79
2023/01/30 08:54:19;;;;;;;13.90;11.00;;;;;;;-128.00;-1.00;-1.00;104917;1262;1004275;-79
2023/01/30 08:56:46;;;;;;;15.30;11.80;;;;;;;-128.00;-1.00;-1.00;104815;1264;1004002;-79
2023/01/30 08:59:13;;;;;;;18.00;14.40;;;;;;;-128.00;-1.00;-1.00;104922;1265;1004326;-79
2023/01/30 09:01:39;;;;;;;15.90;12.60;;;;;;;-128.00;-1.00;-1.00;104940;1264;1003662;-79
2023/01/30 09:04:06;;;;;;;18.20;13.30;;;;;;;-128.00;-1.00;-1.00;104901;1264;1004810;-80
2023/01/30 09:06:33;;;;;;;19.40;14.40;;;;;;;-128.00;-1.00;-1.00;104956;1264;1003999;-78
2023/01/30 09:09:00;;;;;;;17.80;13.00;;;;;;;-128.00;-1.00;-1.00;104954;1263;1004274;-79
2023/01/30 09:11:26;;;;;;;16.50;12.00;;;;;;;-128.00;-1.00;-1.00;104718;1264;1003689;-79
2023/01/30 09:13:53;;;;;;;17.70;14.00;;;;;;;-128.00;-1.00;-1.00;104952;1264;1004471;-79
2023/01/30 09:16:20;;;;;;;19.60;13.00;;;;;;;-128.00;-1.00;-1.00;104973;1264;1004011;-80
2023/01/30 09:18:47;;;;;;;15.50;12.00;;;;;;;-128.00;-1.00;-1.00;104931;1264;1004450;-78
2023/01/30 09:21:13;;;;;;;17.10;11.90;;;;;;;-128.00;-1.00;-1.00;104943;1264;1004849;-80
2023/01/30 09:23:40;;;;;;;16.00;12.10;;;;;;;-128.00;-1.00;-1.00;104919;1264;1004013;-79
2023/01/30 09:26:07;;;;;;;15.90;12.70;;;;;;;-128.00;-1.00;-1.00;104916;1263;1005127;-78
2023/01/30 09:28:34;;;;;;;18.60;13.30;;;;;;;-128.00;-1.00;-1.00;104911;1264;1003537;-79
2023/01/30 09:31:01;;;;;;;21.70;12.50;;;;;;;-128.00;-1.00;-1.00;104909;1264;1004387;-79
2023/01/30 09:33:28;;;;;;;15.10;11.90;;;;;;;-128.00;-1.00;-1.00;104943;1264;1004772;-79
2023/01/30 09:35:55;;;;;;;15.20;11.70;;;;;;;-128.00;-1.00;-1.00;104931;1264;1004290;-79
2023/01/30 09:38:22;;;;;;;14.90;11.80;;;;;;;-128.00;-1.00;-1.00;104946;1264;1004762;-79
2023/01/30 09:40:58;;;;;;;15.20;10.30;;;;;;;-128.00;-1.00;-1.00;104948;1264;1003970;-78
2023/01/30 09:44:01;;;;;;;12.30;10.30;;;;;;;-128.00;-1.00;-1.00;104914;1263;1047556;-79
2023/01/30 09:47:17;;;;;;;12.90;10.10;;;;;;;-128.00;-1.00;-1.00;104807;1264;1046660;-78
2023/01/30 09:49:46;;;;;;;17.10;11.90;;;;;;;-128.00;-1.00;-1.00;104099;1270;1061074;-78
2023/01/30 09:52:19;;;;;;;14.30;10.50;;;;;;;-128.00;-1.00;-1.00;104446;1270;1057305;-78
2023/01/30 09:54:46;;;;;;;14.30;11.10;;;;;;;-128.00;-1.00;-1.00;104444;1270;1058961;-78
2023/01/30 09:57:19;;;;;;;12.10;10.30;;;;;;;-128.00;-1.00;-1.00;104460;1270;1004918;-79
2023/01/30 10:00:01;;;;;;;14.20;10.20;;;;;;;-128.00;-1.00;-1.00;104446;1270;1047385;-78
2023/01/30 10:02:53;;;;;;;12.00;10.70;;;;;;;-128.00;-1.00;-1.00;104490;1270;1061522;-79
2023/01/30 10:05:33;;;;;;;14.90;10.80;;;;;;;-128.00;-1.00;-1.00;103848;1276;1055529;-79
2023/01/30 10:08:07;;;;;;;13.40;11.10;;;;;;;-128.00;-1.00;-1.00;103857;1276;1059339;-79
2023/01/30 10:10:40;;;;;;;13.30;10.90;;;;;;;-128.00;-1.00;-1.00;103844;1276;1046341;-79
2023/01/30 10:13:09;;;;;;;14.90;11.30;;;;;;;-128.00;-1.00;-1.00;103897;1276;1046419;-78
2023/01/30 10:15:59;;;;;;;14.20;10.00;;;;;;;-128.00;-1.00;-1.00;103885;1276;1061638;-79
2023/01/30 10:18:41;;;;;;;14.40;12.40;;;;;;;-128.00;-1.00;-1.00;103892;1276;1056232;-79
2023/01/30 10:21:36;;;;;;;13.00;11.60;;;;;;;-128.00;-1.00;-1.00;103653;1276;1060031;-79
2023/01/30 10:24:23;;;;;;;12.60;9.70;;;;;;;-128.00;-1.00;-1.00;103622;1277;1045659;-79
2023/01/30 10:26:50;;;;;;;14.30;10.70;;;;;;;-128.00;-1.00;-1.00;104433;1270;1048104;-79
2023/01/30 10:29:24;;;;;;;13.20;10.40;;;;;;;-128.00;-1.00;-1.00;104136;1270;1005133;-79
2023/01/30 10:32:13;;;;;;;12.30;9.90;;;;;;;-128.00;-1.00;-1.00;104476;1270;1055900;-78
2023/01/30 10:34:45;;;;;;;14.50;10.90;;;;;;;-128.00;-1.00;-1.00;104424;1269;1060053;-77
2023/01/30 10:37:21;;;;;;;14.10;10.10;;;;;;;-128.00;-1.00;-1.00;104264;1270;1046379;-77
2023/01/30 10:40:09;;;;;;;11.20;9.00;;;;;;;-128.00;-1.00;-1.00;104469;1270;1046791;-78
2023/01/30 10:42:49;;;;;;;13.60;10.50;;;;;;;-128.00;-1.00;-1.00;104623;1264;1062601;-78
2023/01/30 10:45:21;;;;;;;13.10;9.10;;;;;;;-128.00;-1.00;-1.00;104825;1264;1055864;-78
2023/01/30 10:48:11;;;;;;;14.90;11.50;;;;;;;-128.00;-1.00;-1.00;104883;1264;1058656;-79
2023/01/30 10:50:47;;;;;;;;;;;;;;;-128.00;-1.00;-1.00;104931;1264;1045608;-80
2023/01/30 10:53:27;;;;;;;15.10;12.00;;;;;;;-128.00;-1.00;-1.00;104862;1264;1047397;-81
2023/01/30 10:56:03;;;;;;;13.10;10.90;;;;;;;-128.00;-1.00;-1.00;104969;1262;1061655;-82
2023/01/30 10:58:44;;;;;;;13.20;10.50;;;;;;;-128.00;-1.00;-1.00;105034;1262;1057355;-80
2023/01/30 11:01:22;;;;;;;11.90;10.30;;;;;;;-128.00;-1.00;-1.00;104842;1262;1059100;-79
2023/01/30 11:03:55;;;;;;;16.10;10.10;;;;;;;-128.00;-1.00;-1.00;105005;1262;1045524;-82
2023/01/30 11:06:24;;;;;;;14.60;12.30;;;;;;;-128.00;-1.00;-1.00;105003;1262;1046708;-81
2023/01/30 11:08:53;;;;;;;15.20;12.30;;;;;;;-128.00;-1.00;-1.00;104912;1262;1061552;-81
2023/01/30 11:11:38;;;;;;;14.30;12.00;;;;;;;-128.00;-1.00;-1.00;104897;1262;1056125;-81
2023/01/30 11:14:09;;;;;;;13.20;11.40;;;;;;;-128.00;-1.00;-1.00;105010;1262;1059920;-80
2023/01/30 11:16:50;;;;;;;11.00;9.20;;;;;;;-128.00;-1.00;-1.00;104988;1262;1046156;-81
2023/01/30 11:19:21;;;;;;;12.80;10.50;;;;;;;-128.00;-1.00;-1.00;105009;1262;1046808;-80
2023/01/30 11:21:59;;;;;;;13.90;11.70;;;;;;;-128.00;-1.00;-1.00;105038;1262;1060504;-81
2023/01/30 11:24:31;;;;;;;15.60;11.70;;;;;;;-128.00;-1.00;-1.00;104936;1262;1057287;-81
2023/01/30 11:27:29;;;;;;;13.10;10.70;;;;;;;-128.00;-1.00;-1.00;104794;1262;1058824;-81